sensor_id;sensor_type;location;lat;lon;timestamp;pressure;altitude;pressure_sealevel;temperature;humidity
11413;BME280;5762;43.256;26.960;2023-06-19T18:48:59;99483.08;;;22.64;100.00
11413;BME280;5762;43.256;26.960;2023-06-19T18:51:27;99477.13;;;22.59;100.00
11413;BME280;5762;43.256;26.960;2023-06-19T18:53:56;99476.50;;;22.49;100.00
11413;BME280;5762;43.256;26.960;2023-06-19T18:59:10;99494.98;;;22.45;100.00
11413;BME280;5762;43.256;26.960;2023-06-19T19:01:38;99485.05;;;22.33;100.00
11413;BME280;5762;43.256;26.960;2023-06-19T19:04:07;99492.49;;;22.29;100.00
11413;BME280;5762;43.256;26.960;2023-06-19T19:06:35;99488.71;;;22.24;100.00
11413;BME280;5762;43.256;26.960;2023-06-19T19:09:04;99477.13;;;22.28;100.00
11413;BME280;5762;43.256;26.960;2023-06-19T19:11:32;99484.16;;;22.22;100.00
11413;BME280;5762;43.256;26.960;2023-06-19T19:14:00;99482.76;;;22.18;100.00
11413;BME280;5762;43.256;26.960;2023-06-19T19:16:29;99477.01;;;22.10;100.00
11413;BME280;5762;43.256;26.960;2023-06-19T19:18:57;99483.83;;;22.03;100.00
11413;BME280;5762;43.256;26.960;2023-06-19T19:21:26;99482.95;;;21.95;100.00
11413;BME280;5762;43.256;26.960;2023-06-19T19:23:55;99499.86;;;21.94;100.00
11413;BME280;5762;43.256;26.960;2023-06-19T19:26:23;99508.47;;;21.89;100.00
11413;BME280;5762;43.256;26.960;2023-06-19T19:28:52;99512.22;;;21.90;100.00
11413;BME280;5762;43.256;26.960;2023-06-19T19:31:21;99506.05;;;21.80;100.00
11413;BME280;5762;43.256;26.960;2023-06-19T19:33:49;99492.84;;;21.59;100.00
11413;BME280;5762;43.256;26.960;2023-06-19T19:36:18;99491.00;;;21.33;100.00
11413;BME280;5762;43.256;26.960;2023-06-19T19:38:47;99496.09;;;21.31;100.00
11413;BME280;5762;43.256;26.960;2023-06-19T19:41:16;99502.80;;;21.34;100.00
11413;BME280;5762;43.256;26.960;2023-06-19T19:43:45;99503.80;;;21.35;100.00
11413;BME280;5762;43.256;26.960;2023-06-19T19:46:14;99505.77;;;21.35;100.00
11413;BME280;5762;43.256;26.960;2023-06-19T19:48:43;99514.66;;;21.38;100.00
11413;BME280;5762;43.256;26.960;2023-06-19T19:51:12;99504.64;;;21.39;100.00
11413;BME280;5762;43.256;26.960;2023-06-19T19:53:41;99504.44;;;21.38;100.00
11413;BME280;5762;43.256;26.960;2023-06-19T19:56:10;99512.06;;;21.35;100.00
11413;BME280;5762;43.256;26.960;2023-06-19T19:58:39;99514.07;;;21.38;100.00
11413;BME280;5762;43.256;26.960;2023-06-19T20:01:07;99518.88;;;21.49;100.00
11413;BME280;5762;43.256;26.960;2023-06-19T20:03:36;99523.68;;;21.55;100.00
11413;BME280;5762;43.256;26.960;2023-06-19T20:06:05;99527.44;;;21.57;100.00
11413;BME280;5762;43.256;26.960;2023-06-19T20:08:34;99504.57;;;21.53;100.00
11413;BME280;5762;43.256;26.960;2023-06-19T20:11:03;99492.92;;;21.29;100.00
11413;BME280;5762;43.256;26.960;2023-06-19T20:13:31;99485.26;;;20.99;100.00
11413;BME280;5762;43.256;26.960;2023-06-19T20:16:01;99483.30;;;20.69;100.00
11413;BME280;5762;43.256;26.960;2023-06-19T20:18:29;99482.56;;;20.46;100.00
11413;BME280;5762;43.256;26.960;2023-06-19T20:20:58;99488.06;;;20.46;100.00
11413;BME280;5762;43.256;26.960;2023-06-19T20:23:26;99482.18;;;20.34;100.00
11413;BME280;5762;43.256;26.960;2023-06-19T20:25:55;99493.39;;;20.35;100.00
11413;BME280;5762;43.256;26.960;2023-06-19T20:28:23;99489.36;;;20.29;100.00
11413;BME280;5762;43.256;26.960;2023-06-19T20:30:52;99482.13;;;20.31;100.00
11413;BME280;5762;43.256;26.960;2023-06-19T20:33:21;99478.41;;;20.20;100.00
11413;BME280;5762;43.256;26.960;2023-06-19T20:35:50;99481.83;;;20.13;100.00
11413;BME280;5762;43.256;26.960;2023-06-19T20:38:19;99481.95;;;20.07;100.00
11413;BME280;5762;43.256;26.960;2023-06-19T20:40:48;99485.38;;;20.00;100.00
11413;BME280;5762;43.256;26.960;2023-06-19T20:43:17;99475.39;;;20.02;100.00
11413;BME280;5762;43.256;26.960;2023-06-19T20:45:46;99475.03;;;20.03;100.00
11413;BME280;5762;43.256;26.960;2023-06-19T20:48:15;99475.55;;;19.99;100.00
11413;BME280;5762;43.256;26.960;2023-06-19T20:50:44;99468.41;;;19.95;100.00
11413;BME280;5762;43.256;26.960;2023-06-19T20:53:12;99472.03;;;19.89;100.00
11413;BME280;5762;43.256;26.960;2023-06-19T20:55:41;99478.05;;;19.85;100.00
11413;BME280;5762;43.256;26.960;2023-06-19T20:58:10;99479.14;;;19.81;100.00
11413;BME280;5762;43.256;26.960;2023-06-19T21:00:38;99484.48;;;19.83;100.00
11413;BME280;5762;43.256;26.960;2023-06-19T21:03:07;99487.38;;;19.81;100.00
11413;BME280;5762;43.256;26.960;2023-06-19T21:05:36;99485.85;;;19.83;100.00
11413;BME280;5762;43.256;26.960;2023-06-19T21:08:05;99484.78;;;19.78;100.00
11413;BME280;5762;43.256;26.960;2023-06-19T21:10:33;99486.48;;;19.73;100.00
11413;BME280;5762;43.256;26.960;2023-06-19T21:13:02;99484.03;;;19.68;100.00
11413;BME280;5762;43.256;26.960;2023-06-19T21:15:31;99486.44;;;19.60;100.00
11413;BME280;5762;43.256;26.960;2023-06-19T21:18:00;99489.98;;;19.51;100.00
11413;BME280;5762;43.256;26.960;2023-06-19T21:20:29;99490.41;;;19.53;100.00
11413;BME280;5762;43.256;26.960;2023-06-19T21:22:57;99483.91;;;19.51;100.00
11413;BME280;5762;43.256;26.960;2023-06-19T21:25:26;99483.89;;;19.41;100.00
11413;BME280;5762;43.256;26.960;2023-06-19T21:27:55;99492.56;;;19.43;100.00
11413;BME280;5762;43.256;26.960;2023-06-19T21:30:24;99492.52;;;19.40;100.00
11413;BME280;5762;43.256;26.960;2023-06-19T21:32:53;99491.80;;;19.33;100.00
11413;BME280;5762;43.256;26.960;2023-06-19T21:35:22;99503.05;;;19.19;100.00
11413;BME280;5762;43.256;26.960;2023-06-19T21:37:51;99506.95;;;19.08;100.00
11413;BME280;5762;43.256;26.960;2023-06-19T21:40:19;99510.98;;;18.85;100.00
11413;BME280;5762;43.256;26.960;2023-06-19T21:42:48;99514.94;;;18.78;100.00
11413;BME280;5762;43.256;26.960;2023-06-19T21:45:17;99515.95;;;18.70;100.00
11413;BME280;5762;43.256;26.960;2023-06-19T21:47:45;99515.08;;;18.66;100.00
11413;BME280;5762;43.256;26.960;2023-06-19T21:50:14;99516.79;;;18.49;100.00
11413;BME280;5762;43.256;26.960;2023-06-19T21:52:44;99519.36;;;18.41;100.00
11413;BME280;5762;43.256;26.960;2023-06-19T21:55:12;99520.94;;;18.33;100.00
11413;BME280;5762;43.256;26.960;2023-06-19T21:57:41;99516.56;;;18.22;100.00
11413;BME280;5762;43.256;26.960;2023-06-19T22:00:10;99521.55;;;18.11;100.00
11413;BME280;5762;43.256;26.960;2023-06-19T22:02:40;99526.14;;;18.06;100.00
11413;BME280;5762;43.256;26.960;2023-06-19T22:05:08;99528.86;;;17.97;100.00
11413;BME280;5762;43.256;26.960;2023-06-19T22:07:37;99538.70;;;17.92;100.00
11413;BME280;5762;43.256;26.960;2023-06-19T22:10:06;99540.23;;;17.83;100.00
11413;BME280;5762;43.256;26.960;2023-06-19T22:12:35;99551.30;;;17.81;100.00
11413;BME280;5762;43.256;26.960;2023-06-19T22:15:04;99551.43;;;17.78;100.00
11413;BME280;5762;43.256;26.960;2023-06-19T22:17:34;99562.75;;;17.70;100.00
11413;BME280;5762;43.256;26.960;2023-06-19T22:20:03;99572.78;;;17.72;100.00
11413;BME280;5762;43.256;26.960;2023-06-19T22:22:32;99580.20;;;17.72;100.00
11413;BME280;5762;43.256;26.960;2023-06-19T22:25:01;99584.30;;;17.72;100.00
11413;BME280;5762;43.256;26.960;2023-06-19T22:27:30;99593.66;;;17.71;100.00
11413;BME280;5762;43.256;26.960;2023-06-19T22:29:59;99599.34;;;17.78;100.00
11413;BME280;5762;43.256;26.960;2023-06-19T22:32:27;99602.97;;;17.82;100.00
11413;BME280;5762;43.256;26.960;2023-06-19T22:34:55;99599.80;;;17.74;100.00
11413;BME280;5762;43.256;26.960;2023-06-19T22:37:24;99612.58;;;17.76;100.00
11413;BME280;5762;43.256;26.960;2023-06-19T22:39:52;99613.73;;;17.69;100.00
11413;BME280;5762;43.256;26.960;2023-06-19T22:42:20;99627.11;;;17.58;100.00
11413;BME280;5762;43.256;26.960;2023-06-19T22:44:49;99623.97;;;17.38;100.00
11413;BME280;5762;43.256;26.960;2023-06-19T22:47:17;99634.61;;;17.27;100.00
11413;BME280;5762;43.256;26.960;2023-06-19T22:49:46;99628.13;;;17.26;100.00
11413;BME280;5762;43.256;26.960;2023-06-19T22:52:15;99646.03;;;17.11;100.00
11413;BME280;5762;43.256;26.960;2023-06-19T22:54:43;99649.56;;;17.05;100.00
11413;BME280;5762;43.256;26.960;2023-06-19T22:57:12;99659.59;;;17.07;100.00
11413;BME280;5762;43.256;26.960;2023-06-19T22:59:41;99664.26;;;17.13;100.00
11413;BME280;5762;43.256;26.960;2023-06-19T23:02:10;99663.12;;;17.14;100.00
11413;BME280;5762;43.256;26.960;2023-06-19T23:04:39;99662.20;;;17.10;100.00
11413;BME280;5762;43.256;26.960;2023-06-19T23:07:08;99664.72;;;17.09;100.00
11413;BME280;5762;43.256;26.960;2023-06-19T23:09:36;99662.66;;;17.00;100.00
11413;BME280;5762;43.256;26.960;2023-06-19T23:12:06;99663.38;;;16.91;100.00
11413;BME280;5762;43.256;26.960;2023-06-19T23:14:36;99666.79;;;16.94;100.00
11413;BME280;5762;43.256;26.960;2023-06-19T23:17:04;99663.02;;;16.86;100.00
11413;BME280;5762;43.256;26.960;2023-06-19T23:19:33;99661.43;;;16.85;100.00
11413;BME280;5762;43.256;26.960;2023-06-19T23:22:01;99660.28;;;16.74;100.00
11413;BME280;5762;43.256;26.960;2023-06-19T23:24:30;99665.06;;;16.71;100.00
11413;BME280;5762;43.256;26.960;2023-06-19T23:26:58;99674.50;;;16.67;100.00
11413;BME280;5762;43.256;26.960;2023-06-19T23:29:27;99682.58;;;16.64;100.00
11413;BME280;5762;43.256;26.960;2023-06-19T23:31:57;99683.12;;;16.63;100.00
11413;BME280;5762;43.256;26.960;2023-06-19T23:34:26;99689.75;;;16.62;100.00
11413;BME280;5762;43.256;26.960;2023-06-19T23:36:55;99699.45;;;16.72;100.00
11413;BME280;5762;43.256;26.960;2023-06-19T23:39:24;99700.48;;;16.80;100.00
11413;BME280;5762;43.256;26.960;2023-06-19T23:41:52;99704.83;;;16.87;100.00
11413;BME280;5762;43.256;26.960;2023-06-19T23:44:20;99705.52;;;16.90;100.00
11413;BME280;5762;43.256;26.960;2023-06-19T23:46:49;99715.08;;;16.90;100.00
11413;BME280;5762;43.256;26.960;2023-06-19T23:49:18;99708.25;;;16.90;100.00
11413;BME280;5762;43.256;26.960;2023-06-19T23:51:47;99707.56;;;16.87;100.00
11413;BME280;5762;43.256;26.960;2023-06-19T23:54:16;99708.92;;;16.87;100.00
11413;BME280;5762;43.256;26.960;2023-06-19T23:56:44;99715.52;;;16.80;100.00
11413;BME280;5762;43.256;26.960;2023-06-19T23:59:13;99706.19;;;16.81;100.00
